Terminal Aerodrome Forecast
Issued by NWS Grand Rapids, MI

Home | Current Version | Previous Version | Text Only | Print | Product List | Glossary On
Versions: 1 2 3 4 5 6 7 8 9 10 11 12 13 14 15 16 17 18 19 20
000
FTUS43 KGRR 011738
TAFGRR
TAF
KGRR 011738Z 0118/0218 04010KT P6SM OVC007
     FM012100 04008KT P6SM VCSH OVC015
      TEMPO 0121/0124 4SM BR OVC007
     FM020600 04008KT P6SM OVC015
     FM021300 03009KT P6SM SCT025=

USA.gov is the U.S. government's official web portal to all federal, state and local government web resources and services.